Time;durP1;ratioP1;P1;durP2;ratioP2;P2;SDS_P1;SDS_P2;PMS_P1;PMS_P2;Temp;Humidity;BMP_temperature;BMP_pressure;BME280_temperature;BME280_humidity;BME280_pressure;Samples;Min_cycle;Max_cycle;Signal;HPM_P1;HPM_P2
2022/02/24 00:02:18;;;;;;;7.82;2.63;;;9.50;66.10;;;;;;5006559;28;20132;-81
2022/02/24 00:04:46;;;;;;;6.00;2.20;;;9.50;66.20;;;;;;5007935;28;20017;-81
2022/02/24 00:07:12;;;;;;;9.25;3.15;;;9.50;66.20;;;;;;5008140;28;20044;-82
2022/02/24 00:09:41;;;;;;;8.15;2.55;;;9.40;66.20;;;;;;5011295;28;20116;-81
2022/02/24 00:12:07;;;;;;;9.52;2.67;;;9.40;66.20;;;;;;5007268;28;20089;-81
2022/02/24 00:14:33;;;;;;;7.82;2.80;;;9.50;66.40;;;;;;5011300;28;20085;-81
2022/02/24 00:16:59;;;;;;;6.93;2.92;;;9.40;66.50;;;;;;5011207;28;20498;-81
2022/02/24 00:19:24;;;;;;;5.40;2.85;;;9.40;66.60;;;;;;5011325;28;20017;-83
2022/02/24 00:21:50;;;;;;;6.32;2.53;;;9.40;66.70;;;;;;5013842;28;20030;-81
2022/02/24 00:24:15;;;;;;;6.10;2.30;;;9.40;66.80;;;;;;5013487;28;20079;-80
2022/02/24 00:26:41;;;;;;;8.48;2.70;;;9.40;66.70;;;;;;5010695;28;20481;-82
2022/02/24 00:29:07;;;;;;;5.05;2.20;;;9.40;66.60;;;;;;5011981;28;20022;-82
2022/02/24 00:31:33;;;;;;;8.63;3.00;;;9.40;66.60;;;;;;5010850;28;20120;-81
2022/02/24 00:33:59;;;;;;;7.20;2.60;;;9.30;66.20;;;;;;5014300;28;20113;-81
2022/02/24 00:36:25;;;;;;;8.48;2.60;;;9.40;66.20;;;;;;5008257;28;20029;-82
2022/02/24 00:38:50;;;;;;;5.63;2.30;;;9.40;66.10;;;;;;5010688;28;20021;-81
2022/02/24 00:41:16;;;;;;;11.48;3.20;;;9.40;66.00;;;;;;5012714;28;20439;-82
2022/02/24 00:43:42;;;;;;;6.82;2.92;;;9.30;65.70;;;;;;5005495;28;20114;-81
2022/02/24 00:46:08;;;;;;;12.20;5.28;;;9.30;65.70;;;;;;5013237;28;20022;-82
2022/02/24 00:48:34;;;;;;;7.53;2.78;;;9.30;65.60;;;;;;5007944;28;20393;-80
2022/02/24 00:50:59;;;;;;;7.82;2.70;;;9.30;65.70;;;;;;5012031;28;20041;-81
2022/02/24 00:53:25;;;;;;;6.53;2.47;;;9.30;65.80;;;;;;5005956;28;20037;-82
2022/02/24 00:55:51;;;;;;;6.82;2.58;;;9.30;65.80;;;;;;5008167;28;20022;-82
2022/02/24 00:58:16;;;;;;;8.55;2.35;;;9.30;65.90;;;;;;5010392;28;20041;-82
2022/02/24 01:00:42;;;;;;;10.70;3.38;;;9.30;66.00;;;;;;5010812;28;20017;-80
2022/02/24 01:03:08;;;;;;;6.57;2.90;;;9.30;66.10;;;;;;5014028;28;20108;-81
2022/02/24 01:05:34;;;;;;;7.25;2.60;;;9.30;66.10;;;;;;5009881;28;20026;-82
2022/02/24 01:07:59;;;;;;;9.23;3.25;;;9.30;66.20;;;;;;5012645;28;20582;-82
2022/02/24 01:10:25;;;;;;;7.50;2.90;;;9.20;66.20;;;;;;5012628;28;20105;-82
2022/02/24 01:12:50;;;;;;;7.07;2.75;;;9.20;66.30;;;;;;5022832;28;20026;-82
2022/02/24 01:15:16;;;;;;;8.75;2.92;;;9.30;66.40;;;;;;5018326;28;20026;-81
2022/02/24 01:17:43;;;;;;;7.60;3.17;;;9.30;66.50;;;;;;5020521;28;20057;-82
2022/02/24 01:20:09;;;;;;;8.00;2.92;;;9.30;66.60;;;;;;5021406;28;20024;-81
2022/02/24 01:22:35;;;;;;;5.95;2.72;;;9.20;66.70;;;;;;5020718;28;20029;-81
2022/02/24 01:25:03;;;;;;;7.60;3.28;;;9.20;66.90;;;;;;5023562;28;20022;-81
2022/02/24 01:27:28;;;;;;;8.70;3.22;;;9.30;67.00;;;;;;5024092;28;20431;-81
2022/02/24 01:29:54;;;;;;;7.05;2.70;;;9.20;67.10;;;;;;5024972;28;20080;-82
2022/02/24 01:32:19;;;;;;;7.22;2.42;;;9.20;67.20;;;;;;5022909;28;20033;-81
2022/02/24 01:34:45;;;;;;;5.43;2.20;;;9.20;67.30;;;;;;5020502;28;20033;-81
2022/02/24 01:37:10;;;;;;;6.97;2.15;;;9.30;67.40;;;;;;5019879;28;20069;-81
2022/02/24 01:39:36;;;;;;;6.53;2.90;;;9.30;67.40;;;;;;5018985;28;20037;-81
2022/02/24 01:42:02;;;;;;;8.65;3.08;;;9.30;67.40;;;;;;5020742;28;20038;-81
2022/02/24 01:44:40;;;;;;;7.18;2.72;;;9.30;67.60;;;;;;5020509;28;20056;-82
2022/02/24 01:47:06;;;;;;;5.75;2.63;;;9.30;67.70;;;;;;5018220;28;20058;-82
2022/02/24 01:49:32;;;;;;;5.28;2.58;;;9.20;67.70;;;;;;5017723;28;20034;-82
2022/02/24 01:51:58;;;;;;;8.82;3.45;;;9.20;67.80;;;;;;5018466;28;20033;-81
2022/02/24 01:54:23;;;;;;;5.55;2.65;;;9.20;68.00;;;;;;5016655;28;20025;-82
2022/02/24 01:56:50;;;;;;;6.72;3.00;;;9.20;68.10;;;;;;5020999;28;20038;-81
2022/02/24 01:59:15;;;;;;;8.90;3.78;;;9.20;68.20;;;;;;5019924;28;20030;-82
2022/02/24 02:01:41;;;;;;;9.50;3.70;;;9.20;68.40;;;;;;5018885;28;20026;-82
2022/02/24 02:04:09;;;;;;;10.10;3.92;;;9.10;68.40;;;;;;5022835;28;20045;-83
2022/02/24 02:06:34;;;;;;;10.25;3.60;;;9.10;68.30;;;;;;5020510;28;20045;-82
2022/02/24 02:09:02;;;;;;;8.07;3.25;;;9.10;68.30;;;;;;5021441;28;20610;-82
2022/02/24 02:11:27;;;;;;;7.88;3.40;;;9.10;68.30;;;;;;5010695;28;20030;-80
2022/02/24 02:13:53;;;;;;;7.53;2.95;;;9.10;68.20;;;;;;4996509;28;20121;-81
2022/02/24 02:16:18;;;;;;;6.68;2.97;;;9.20;68.20;;;;;;5013163;28;20491;-81
2022/02/24 02:18:44;;;;;;;10.73;3.90;;;9.20;68.10;;;;;;5027680;28;20029;-81
2022/02/24 02:21:09;;;;;;;10.13;3.85;;;9.10;67.80;;;;;;5022801;28;20503;-81
2022/02/24 02:23:35;;;;;;;10.18;3.97;;;9.10;67.60;;;;;;5013300;28;20435;-81
2022/02/24 02:26:01;;;;;;;8.15;3.55;;;9.10;67.60;;;;;;5015022;28;20153;-82
2022/02/24 02:28:26;;;;;;;9.45;3.50;;;9.00;67.60;;;;;;5018615;28;20041;-82
2022/02/24 02:30:52;;;;;;;11.90;3.50;;;9.10;67.80;;;;;;5020673;28;20057;-82
2022/02/24 02:33:18;;;;;;;9.38;3.55;;;9.10;67.80;;;;;;5018537;28;20052;-81
2022/02/24 02:35:43;;;;;;;9.10;3.38;;;9.10;67.90;;;;;;5019785;28;20026;-82
2022/02/24 02:38:09;;;;;;;6.93;3.42;;;9.10;68.00;;;;;;5016850;28;20065;-82
2022/02/24 02:40:37;;;;;;;9.63;3.67;;;9.10;67.90;;;;;;5022926;28;20108;-81
2022/02/24 02:43:07;;;;;;;10.55;3.10;;;9.10;67.90;;;;;;5007050;28;20022;-81
2022/02/24 02:45:33;;;;;;;8.73;3.10;;;9.00;67.90;;;;;;5020239;28;20022;-81
2022/02/24 02:48:00;;;;;;;12.32;3.80;;;9.10;67.90;;;;;;5016362;28;20032;-80
2022/02/24 02:50:29;;;;;;;8.48;3.17;;;9.10;67.90;;;;;;5025844;28;20105;-80
2022/02/24 02:52:55;;;;;;;12.20;4.20;;;9.10;67.80;;;;;;5011160;28;20097;-81
2022/02/24 02:55:21;;;;;;;8.25;3.22;;;9.10;67.70;;;;;;5022426;28;20029;-80
2022/02/24 02:57:47;;;;;;;7.25;2.95;;;9.10;67.70;;;;;;5019135;28;20044;-80
2022/02/24 03:00:15;;;;;;;6.68;2.90;;;9.10;67.70;;;;;;5022500;28;20017;-82
2022/02/24 03:02:41;;;;;;;8.98;2.60;;;9.10;67.70;;;;;;5016738;28;20032;-80
2022/02/24 03:05:07;;;;;;;8.93;3.10;;;9.10;67.60;;;;;;5018898;28;20022;-80
2022/02/24 03:07:33;;;;;;;7.65;3.03;;;9.10;67.40;;;;;;5016826;28;20033;-80
2022/02/24 03:09:58;;;;;;;8.23;3.10;;;9.10;67.40;;;;;;5022036;28;20044;-80
2022/02/24 03:12:24;;;;;;;10.52;3.33;;;9.00;67.20;;;;;;5015538;28;20036;-80
2022/02/24 03:14:50;;;;;;;13.75;3.65;;;9.00;67.00;;;;;;5014656;28;20056;-80
2022/02/24 03:17:16;;;;;;;8.93;3.20;;;9.00;67.00;;;;;;5010034;28;20034;-80
2022/02/24 03:19:42;;;;;;;7.35;2.60;;;9.00;67.00;;;;;;5018383;28;20560;-80
2022/02/24 03:22:12;;;;;;;10.23;3.08;;;9.00;67.00;;;;;;5017531;28;20056;-80
2022/02/24 03:24:38;;;;;;;6.43;2.38;;;9.00;67.00;;;;;;5013918;28;20029;-80
2022/02/24 03:27:04;;;;;;;7.97;2.30;;;9.00;66.90;;;;;;5019485;28;20022;-80
2022/02/24 03:29:30;;;;;;;7.50;2.78;;;9.00;66.80;;;;;;5018300;28;20028;-80
2022/02/24 03:31:56;;;;;;;7.07;2.15;;;9.10;66.80;;;;;;5019755;28;20034;-81
2022/02/24 03:34:21;;;;;;;6.57;2.30;;;9.10;66.70;;;;;;5019830;28;20030;-81
2022/02/24 03:36:47;;;;;;;11.20;3.22;;;9.10;66.60;;;;;;5020621;28;20041;-81
2022/02/24 03:39:12;;;;;;;6.85;2.75;;;9.10;66.50;;;;;;5017798;28;20025;-82
2022/02/24 03:41:38;;;;;;;10.90;3.00;;;9.10;66.50;;;;;;5021313;28;20405;-82
2022/02/24 03:44:04;;;;;;;8.02;2.92;;;9.00;66.30;;;;;;5018709;28;20483;-82
2022/02/24 03:46:30;;;;;;;8.02;2.85;;;9.00;66.10;;;;;;5021387;28;20044;-82
2022/02/24 03:48:56;;;;;;;5.22;2.25;;;9.00;66.20;;;;;;5018803;28;20469;-81
2022/02/24 03:51:21;;;;;;;7.72;3.00;;;9.00;66.20;;;;;;5018090;28;20082;-81
2022/02/24 03:53:47;;;;;;;10.18;3.13;;;9.00;65.90;;;;;;5017104;28;20384;-82
2022/02/24 03:56:13;;;;;;;9.35;2.33;;;9.00;65.90;;;;;;5016719;28;20103;-82
2022/02/24 03:58:40;;;;;;;14.40;4.03;;;9.00;66.00;;;;;;5007517;28;20041;-82
2022/02/24 04:01:05;;;;;;;7.63;2.50;;;9.00;65.90;;;;;;5024734;28;20444;-82
2022/02/24 04:03:31;;;;;;;7.25;2.58;;;9.00;65.90;;;;;;5018784;28;20033;-81
2022/02/24 04:05:56;;;;;;;8.20;2.45;;;9.00;66.00;;;;;;5013996;28;20037;-80
2022/02/24 04:08:22;;;;;;;9.75;2.90;;;9.00;66.00;;;;;;5015085;28;20080;-81
2022/02/24 04:10:47;;;;;;;5.88;2.13;;;9.10;66.00;;;;;;5014900;28;20042;-81
2022/02/24 04:13:13;;;;;;;5.35;2.28;;;9.00;66.00;;;;;;5017641;28;20056;-81
2022/02/24 04:15:39;;;;;;;8.13;2.83;;;9.10;66.10;;;;;;5016712;28;20029;-82
2022/02/24 04:18:06;;;;;;;7.78;2.50;;;9.00;66.00;;;;;;5010329;28;20549;-81
2022/02/24 04:20:32;;;;;;;8.00;2.80;;;9.00;66.20;;;;;;5018729;28;20069;-82
2022/02/24 04:23:00;;;;;;;7.93;2.80;;;9.00;66.20;;;;;;5016254;28;20049;-81
2022/02/24 04:25:26;;;;;;;7.50;2.75;;;9.00;66.30;;;;;;5018671;28;20273;-81
2022/02/24 04:27:52;;;;;;;4.72;2.40;;;9.00;66.30;;;;;;5006892;28;20121;-81
2022/02/24 04:30:20;;;;;;;11.10;2.75;;;9.00;66.40;;;;;;5019334;28;20439;-82
2022/02/24 04:32:46;;;;;;;8.10;2.60;;;9.00;66.40;;;;;;5021936;28;20033;-81
2022/02/24 04:35:12;;;;;;;9.52;3.00;;;9.00;66.30;;;;;;5021505;28;20022;-81
2022/02/24 04:37:38;;;;;;;9.82;3.30;;;9.00;66.20;;;;;;5015548;28;20505;-81
2022/02/24 04:40:06;;;;;;;8.82;3.00;;;9.00;66.40;;;;;;5013704;28;20060;-81
2022/02/24 04:42:31;;;;;;;10.85;2.78;;;9.00;66.40;;;;;;5023100;28;20025;-81
2022/02/24 04:45:00;;;;;;;9.07;3.53;;;9.00;66.40;;;;;;5004561;28;20026;-80
2022/02/24 04:47:27;;;;;;;5.80;2.80;;;9.00;66.40;;;;;;5018674;28;20053;-81
2022/02/24 04:49:53;;;;;;;11.00;3.38;;;9.00;66.50;;;;;;5015982;28;20473;-81
2022/02/24 04:52:19;;;;;;;10.30;3.35;;;9.00;66.40;;;;;;5019896;28;20121;-82
2022/02/24 04:54:45;;;;;;;10.38;3.38;;;9.00;66.50;;;;;;5019112;28;20038;-81
2022/02/24 04:57:10;;;;;;;8.38;2.70;;;9.00;66.60;;;;;;5021139;28;20030;-81
2022/02/24 04:59:36;;;;;;;6.13;2.65;;;9.00;66.70;;;;;;5018166;28;20384;-81
2022/02/24 05:02:02;;;;;;;8.23;2.90;;;9.00;66.80;;;;;;5018386;28;20041;-81
2022/02/24 05:04:27;;;;;;;6.45;3.15;;;9.00;67.00;;;;;;5011987;28;20631;-81
2022/02/24 05:06:54;;;;;;;9.95;3.85;;;9.00;67.10;;;;;;5018877;28;20032;-81
2022/02/24 05:09:20;;;;;;;7.68;2.80;;;9.00;67.40;;;;;;5011955;28;20022;-81
2022/02/24 05:11:45;;;;;;;9.38;3.05;;;9.00;67.40;;;;;;5020231;28;20088;-81
2022/02/24 05:14:11;;;;;;;8.50;3.10;;;9.00;67.60;;;;;;5003168;28;20024;-81
2022/02/24 05:16:37;;;;;;;7.95;2.70;;;9.00;67.70;;;;;;5015085;28;20496;-81
2022/02/24 05:19:02;;;;;;;5.75;2.65;;;9.10;67.80;;;;;;5019359;28;20050;-80
2022/02/24 05:21:28;;;;;;;9.50;3.25;;;9.00;67.80;;;;;;5017771;28;20033;-81
2022/02/24 05:23:54;;;;;;;5.72;2.58;;;9.00;67.90;;;;;;5009490;28;20057;-80
2022/02/24 05:26:19;;;;;;;11.05;3.45;;;9.00;67.90;;;;;;5017940;28;20054;-82
2022/02/24 05:28:45;;;;;;;11.32;4.22;;;9.00;68.00;;;;;;5008202;28;20544;-82
2022/02/24 05:31:11;;;;;;;10.60;3.55;;;9.00;68.10;;;;;;5019784;28;20048;-82
2022/02/24 05:33:37;;;;;;;13.55;4.18;;;9.00;68.30;;;;;;5016832;28;20397;-81
2022/02/24 05:36:05;;;;;;;8.48;3.40;;;8.90;68.40;;;;;;5016038;28;20073;-81
2022/02/24 05:38:31;;;;;;;7.45;2.97;;;8.90;68.60;;;;;;5019377;28;20025;-81
2022/02/24 05:40:58;;;;;;;7.50;2.70;;;8.90;68.70;;;;;;5010962;28;20388;-81
2022/02/24 05:43:24;;;;;;;7.18;2.78;;;8.90;68.70;;;;;;5015850;28;20018;-81
2022/02/24 05:45:49;;;;;;;6.43;2.92;;;8.90;68.70;;;;;;5017070;28;20033;-81
2022/02/24 05:48:15;;;;;;;8.10;2.67;;;8.90;68.80;;;;;;5019329;28;20075;-82
2022/02/24 05:50:41;;;;;;;8.00;3.30;;;8.90;68.80;;;;;;5017939;28;20041;-81
2022/02/24 05:53:06;;;;;;;11.38;3.10;;;8.90;69.00;;;;;;5017364;28;20030;-81
2022/02/24 05:55:33;;;;;;;12.77;3.80;;;8.90;69.10;;;;;;5014812;28;20041;-81
2022/02/24 05:58:00;;;;;;;7.28;3.08;;;8.90;69.20;;;;;;5017730;28;20029;-80
2022/02/24 06:00:26;;;;;;;11.07;3.65;;;8.90;69.30;;;;;;5018039;28;20598;-81
2022/02/24 06:02:51;;;;;;;11.27;3.15;;;8.90;69.40;;;;;;5009990;28;20054;-80
2022/02/24 06:05:17;;;;;;;7.55;3.15;;;8.90;69.40;;;;;;5009119;28;20468;-81
2022/02/24 06:07:44;;;;;;;7.65;2.90;;;8.90;69.40;;;;;;5010977;28;20022;-81
2022/02/24 06:10:11;;;;;;;9.90;3.40;;;8.90;69.50;;;;;;5013085;28;20510;-82
2022/02/24 06:12:36;;;;;;;7.38;2.60;;;8.90;69.50;;;;;;5019907;28;20512;-81
2022/02/24 06:15:03;;;;;;;9.05;3.22;;;8.90;69.40;;;;;;5007098;28;20050;-80
2022/02/24 06:17:29;;;;;;;10.15;3.53;;;8.90;69.40;;;;;;4999403;28;20033;-84
2022/02/24 06:19:55;;;;;;;9.05;3.58;;;8.90;69.50;;;;;;5017365;28;20133;-83
2022/02/24 06:22:21;;;;;;;11.15;3.20;;;8.80;69.50;;;;;;5010826;28;20025;-75
2022/02/24 06:24:47;;;;;;;9.30;3.30;;;8.90;69.60;;;;;;5008547;28;20026;-74
2022/02/24 06:27:13;;;;;;;8.80;3.00;;;8.90;69.70;;;;;;5009700;28;20049;-73
2022/02/24 06:29:38;;;;;;;9.32;3.00;;;8.90;69.70;;;;;;5011185;28;20048;-75
2022/02/24 06:32:04;;;;;;;11.45;3.45;;;8.90;69.70;;;;;;5008159;28;20045;-74
2022/02/24 06:34:30;;;;;;;10.60;3.38;;;8.90;69.70;;;;;;5011528;28;20018;-74
2022/02/24 06:36:56;;;;;;;7.15;2.70;;;8.90;69.80;;;;;;5003772;28;20058;-75
2022/02/24 06:39:22;;;;;;;5.85;2.70;;;8.90;69.80;;;;;;5011098;28;20029;-74
2022/02/24 06:41:48;;;;;;;9.65;2.88;;;8.90;70.50;;;;;;5005134;28;20396;-74
2022/02/24 06:44:14;;;;;;;10.25;2.63;;;8.90;69.80;;;;;;5003175;28;20050;-74
2022/02/24 06:46:40;;;;;;;12.43;3.83;;;8.90;69.80;;;;;;5006520;28;20026;-74
2022/02/24 06:49:06;;;;;;;11.85;3.40;;;8.90;69.70;;;;;;5006550;28;20083;-74
2022/02/24 06:51:31;;;;;;;11.98;3.40;;;8.90;69.70;;;;;;5005072;28;20070;-74
2022/02/24 06:53:57;;;;;;;5.25;2.50;;;8.90;69.70;;;;;;5006247;28;20028;-74
2022/02/24 06:56:23;;;;;;;6.78;2.78;;;8.90;69.70;;;;;;5010211;28;20030;-75
2022/02/24 06:58:50;;;;;;;8.93;3.05;;;8.90;69.70;;;;;;5002570;28;20675;-75
2022/02/24 07:01:15;;;;;;;10.50;3.20;;;8.90;69.70;;;;;;5009390;28;20117;-74
2022/02/24 07:03:42;;;;;;;11.05;3.58;;;8.90;69.60;;;;;;5016833;28;20109;-75
2022/02/24 07:06:08;;;;;;;9.82;3.17;;;8.90;69.70;;;;;;5014756;28;20029;-74
2022/02/24 07:08:34;;;;;;;7.38;2.45;;;8.90;69.70;;;;;;5010840;28;20080;-74
2022/02/24 07:11:00;;;;;;;12.50;2.83;;;8.90;69.70;;;;;;5010772;28;20038;-74
2022/02/24 07:13:25;;;;;;;10.15;3.30;;;8.90;69.70;;;;;;5012062;28;20033;-74
2022/02/24 07:15:51;;;;;;;7.32;2.47;;;8.90;70.30;;;;;;5009164;28;20029;-74
2022/02/24 07:18:16;;;;;;;10.38;3.00;;;8.90;69.70;;;;;;5006578;28;20026;-74
2022/02/24 07:20:42;;;;;;;7.47;2.47;;;8.90;69.90;;;;;;5005272;28;20065;-74
2022/02/24 07:23:08;;;;;;;10.07;2.78;;;8.90;70.00;;;;;;5009346;28;20045;-74
2022/02/24 07:25:33;;;;;;;8.05;2.80;;;8.90;70.10;;;;;;5007286;28;20034;-74
2022/02/24 07:27:59;;;;;;;6.60;2.65;;;8.90;70.20;;;;;;5003255;28;20104;-76
2022/02/24 07:30:24;;;;;;;5.15;2.00;;;8.90;70.30;;;;;;4997518;28;20125;-75
2022/02/24 07:32:50;;;;;;;9.25;2.50;;;8.90;70.50;;;;;;5008892;28;20497;-75
2022/02/24 07:35:15;;;;;;;8.85;2.60;;;8.90;71.30;;;;;;5006539;28;20037;-74
2022/02/24 07:37:41;;;;;;;6.97;2.47;;;8.90;71.30;;;;;;5009226;28;20369;-75
2022/02/24 07:40:07;;;;;;;5.85;2.38;;;8.90;71.00;;;;;;5008510;28;20033;-76
2022/02/24 07:42:34;;;;;;;7.93;2.10;;;8.90;71.10;;;;;;5007209;28;20018;-75
2022/02/24 07:45:01;;;;;;;8.43;2.63;;;8.90;71.10;;;;;;5004781;28;20550;-76
2022/02/24 07:47:27;;;;;;;7.15;2.17;;;9.00;71.20;;;;;;5008494;28;20117;-76
2022/02/24 07:49:52;;;;;;;7.43;2.28;;;8.90;71.20;;;;;;5006766;28;20188;-75
2022/02/24 07:52:18;;;;;;;10.20;2.50;;;8.90;71.30;;;;;;5004519;28;20042;-75
2022/02/24 07:54:43;;;;;;;6.60;2.05;;;9.00;71.40;;;;;;5005378;28;20036;-74
2022/02/24 07:57:09;;;;;;;6.13;2.50;;;9.00;71.50;;;;;;5006777;28;20021;-77
2022/02/24 07:59:34;;;;;;;7.57;2.35;;;9.00;71.50;;;;;;5005397;28;20034;-76
2022/02/24 08:02:00;;;;;;;5.88;2.30;;;8.90;71.50;;;;;;5001231;28;20072;-75
2022/02/24 08:04:26;;;;;;;6.55;2.42;;;8.90;71.60;;;;;;5000802;28;20449;-75
2022/02/24 08:06:51;;;;;;;6.30;2.67;;;8.90;71.60;;;;;;5000628;28;20791;-77
2022/02/24 08:09:17;;;;;;;9.25;2.95;;;8.90;71.60;;;;;;5000251;28;20759;-75
2022/02/24 08:12:38;;;;;;;8.48;2.70;;;9.00;71.70;;;;;;5000301;28;20049;-76
2022/02/24 08:14:28;;;;;;;6.38;2.20;;;8.90;71.60;;;;;;5002454;28;20038;-75
2022/02/24 08:16:53;;;;;;;5.55;1.90;;;8.90;71.70;;;;;;5005509;28;20026;-77
2022/02/24 08:19:19;;;;;;;7.28;2.55;;;9.00;71.60;;;;;;5001482;28;20409;-77
2022/02/24 08:21:44;;;;;;;7.68;2.42;;;9.00;71.60;;;;;;5011552;28;20097;-78
2022/02/24 08:24:10;;;;;;;6.68;2.60;;;9.00;71.60;;;;;;5008058;28;20491;-76
2022/02/24 08:26:35;;;;;;;7.22;2.45;;;9.00;71.60;;;;;;5006216;28;20037;-77
2022/02/24 08:29:01;;;;;;;6.10;2.45;;;8.90;71.60;;;;;;5011151;28;20033;-77
2022/02/24 08:31:26;;;;;;;5.38;2.03;;;8.90;71.80;;;;;;5000256;28;20042;-78
2022/02/24 08:33:54;;;;;;;8.73;2.65;;;8.90;71.80;;;;;;5005077;28;20496;-79
2022/02/24 08:36:20;;;;;;;7.75;2.35;;;9.00;71.80;;;;;;5005493;28;20026;-78
2022/02/24 08:38:45;;;;;;;7.03;2.42;;;9.00;71.70;;;;;;5006726;28;20025;-77
2022/02/24 08:41:11;;;;;;;8.75;2.90;;;8.90;71.50;;;;;;5007267;28;20030;-76
2022/02/24 08:43:36;;;;;;;6.38;2.45;;;9.00;71.50;;;;;;5004581;28;20100;-78
2022/02/24 08:46:02;;;;;;;7.78;2.38;;;8.90;71.40;;;;;;5003012;28;20088;-77
2022/02/24 08:48:27;;;;;;;6.47;2.40;;;9.00;71.50;;;;;;5003598;28;20073;-79
2022/02/24 08:50:53;;;;;;;5.57;2.40;;;9.00;71.20;;;;;;5007050;28;20061;-79
2022/02/24 08:53:20;;;;;;;6.95;2.50;;;9.10;71.10;;;;;;5007801;28;20030;-77
2022/02/24 08:55:45;;;;;;;6.47;2.53;;;9.10;70.70;;;;;;5005114;28;20109;-80
2022/02/24 08:58:11;;;;;;;6.30;2.33;;;9.20;70.30;;;;;;5008036;28;20112;-75
2022/02/24 09:00:40;;;;;;;9.32;3.30;;;9.20;70.20;;;;;;5003376;28;20378;-83
2022/02/24 09:03:05;;;;;;;6.82;2.65;;;9.20;69.50;;;;;;5009279;28;20585;-81
2022/02/24 09:05:31;;;;;;;5.53;2.70;;;9.10;69.20;;;;;;5006420;28;20034;-82
2022/02/24 09:07:56;;;;;;;6.03;2.00;;;9.20;69.50;;;;;;5004163;28;20049;-83
2022/02/24 09:10:22;;;;;;;6.63;2.72;;;9.20;69.40;;;;;;5006328;28;20030;-81
2022/02/24 09:12:47;;;;;;;5.35;1.95;;;9.30;69.10;;;;;;5020475;28;20054;-82
2022/02/24 09:15:13;;;;;;;7.53;2.63;;;9.30;69.10;;;;;;5006053;28;20060;-83
2022/02/24 09:17:39;;;;;;;7.53;2.50;;;9.30;68.70;;;;;;5005563;28;20096;-83
2022/02/24 09:20:08;;;;;;;8.40;2.20;;;9.20;68.40;;;;;;5010055;28;20032;-82
2022/02/24 09:22:33;;;;;;;7.60;2.40;;;9.20;68.40;;;;;;5003440;28;20033;-81
2022/02/24 09:24:59;;;;;;;9.02;3.00;;;9.30;68.50;;;;;;5005083;28;20217;-82
2022/02/24 09:27:27;;;;;;;7.85;2.72;;;9.30;68.20;;;;;;5005374;28;20434;-82
2022/02/24 09:29:52;;;;;;;6.10;2.30;;;9.30;67.90;;;;;;5007267;28;20040;-82
2022/02/24 09:32:18;;;;;;;4.93;2.13;;;9.30;67.70;;;;;;5013881;28;20408;-83
2022/02/24 09:34:43;;;;;;;7.07;2.28;;;9.40;67.90;;;;;;5017259;28;20025;-84
2022/02/24 09:37:09;;;;;;;9.10;2.67;;;9.40;67.70;;;;;;5018720;28;20033;-82
2022/02/24 09:39:35;;;;;;;6.60;2.30;;;9.40;67.50;;;;;;5017114;28;20056;-83
2022/02/24 09:42:00;;;;;;;8.82;2.70;;;9.40;67.50;;;;;;5010378;28;20037;-85
2022/02/24 09:44:26;;;;;;;5.07;2.20;;;9.40;67.30;;;;;;5018178;28;20116;-83
2022/02/24 09:46:52;;;;;;;7.80;2.40;;;9.40;67.40;;;;;;5005362;28;20034;-84
2022/02/24 09:49:19;;;;;;;7.57;2.50;;;9.50;67.60;;;;;;5005461;28;20030;-80
2022/02/24 09:51:45;;;;;;;9.27;2.80;;;9.40;67.20;;;;;;5012226;28;20046;-82
2022/02/24 09:54:12;;;;;;;8.20;2.28;;;9.40;67.20;;;;;;5017233;28;20066;-81
2022/02/24 09:56:38;;;;;;;8.40;2.40;;;9.40;67.10;;;;;;5008943;28;20370;-82
2022/02/24 09:59:04;;;;;;;10.07;2.50;;;9.50;67.30;;;;;;5019896;28;20033;-81
2022/02/24 10:01:30;;;;;;;8.77;2.35;;;9.50;67.10;;;;;;5008195;28;20116;-81
2022/02/24 10:03:59;;;;;;;6.93;2.08;;;9.50;66.80;;;;;;5009798;28;20029;-80
2022/02/24 10:06:45;;;;;;;7.32;2.30;;;9.60;67.00;;;;;;5013353;28;20485;-81
2022/02/24 10:09:19;;;;;;;6.10;2.30;;;9.70;66.70;;;;;;5004259;28;20091;-81
2022/02/24 10:11:46;;;;;;;7.60;2.15;;;9.80;66.30;;;;;;5006762;28;20045;-81
2022/02/24 10:14:21;;;;;;;7.03;1.77;;;9.90;66.10;;;;;;5007874;28;20416;-83
2022/02/24 10:16:59;;;;;;;4.38;1.70;;;10.10;66.10;;;;;;5006132;28;20026;-83
2022/02/24 10:19:40;;;;;;;9.93;2.45;;;10.20;66.00;;;;;;5008584;28;20029;-82
2022/02/24 10:22:14;;;;;;;5.85;2.10;;;10.20;64.80;;;;;;5007939;28;20129;-81
2022/02/24 10:24:44;;;;;;;7.95;2.20;;;10.20;64.80;;;;;;5005714;28;20030;-82
2022/02/24 10:27:20;;;;;;;9.98;2.50;;;10.30;64.60;;;;;;5006123;28;20036;-81
2022/02/24 10:30:16;;;;;;;8.50;2.33;;;10.30;64.00;;;;;;5012036;28;20044;-82
2022/02/24 10:33:00;;;;;;;7.88;1.95;;;10.30;64.30;;;;;;5010277;28;20656;-83
2022/02/24 10:35:40;;;;;;;6.95;2.28;;;10.40;64.30;;;;;;5011453;28;20019;-80
2022/02/24 10:38:12;;;;;;;7.45;2.17;;;10.50;64.10;;;;;;5015466;28;20033;-80
2022/02/24 10:40:41;;;;;;;10.13;2.40;;;10.50;64.10;;;;;;5018965;28;20423;-81
2022/02/24 10:43:14;;;;;;;8.48;2.00;;;10.50;63.70;;;;;;5022690;28;20088;-79
2022/02/24 10:45:41;;;;;;;9.40;2.45;;;10.50;63.90;;;;;;5024059;28;20088;-79
2022/02/24 10:48:07;;;;;;;6.55;2.10;;;10.60;63.50;;;;;;5005340;28;20033;-80
2022/02/24 10:50:55;;;;;;;8.10;2.47;;;10.60;63.60;;;;;;5011717;28;20030;-82
2022/02/24 10:53:25;;;;;;;5.25;1.90;;;10.60;63.60;;;;;;5004322;28;20106;-80
2022/02/24 10:55:59;;;;;;;6.30;2.60;;;10.70;63.60;;;;;;5010254;28;20093;-80
2022/02/24 10:58:30;;;;;;;8.43;2.40;;;10.70;63.40;;;;;;5015830;28;20025;-81
2022/02/24 11:01:18;;;;;;;6.75;1.95;;;10.80;63.60;;;;;;5012035;28;20017;-80
2022/02/24 11:03:46;;;;;;;7.13;2.15;;;10.80;63.80;;;;;;5009602;28;20129;-82
2022/02/24 11:06:13;;;;;;;8.20;2.20;;;10.80;63.20;;;;;;5010215;28;20037;-83
2022/02/24 11:08:39;;;;;;;9.48;1.88;;;10.80;62.70;;;;;;5006641;28;20025;-82
2022/02/24 11:11:06;;;;;;;7.47;2.47;;;10.90;62.90;;;;;;5006309;28;20037;-80
2022/02/24 11:13:33;;;;;;;8.18;2.50;;;10.90;62.40;;;;;;5007563;28;20071;-81
2022/02/24 11:16:00;;;;;;;6.60;2.50;;;10.90;62.50;;;;;;5014390;28;20030;-80
2022/02/24 11:18:26;;;;;;;5.82;2.10;;;11.00;62.60;;;;;;5006665;28;20029;-80
2022/02/24 11:20:53;;;;;;;6.25;2.03;;;11.00;62.80;;;;;;5012030;28;20025;-81
2022/02/24 11:23:19;;;;;;;7.07;2.20;;;11.10;62.60;;;;;;5018881;28;20034;-81
2022/02/24 11:26:00;;;;;;;6.65;2.20;;;11.20;62.20;;;;;;5011350;28;20109;-82
2022/02/24 11:28:31;;;;;;;7.43;1.88;;;11.30;62.00;;;;;;5015067;28;20036;-81
2022/02/24 11:31:05;;;;;;;5.10;2.00;;;11.30;61.40;;;;;;5017969;28;20065;-82
2022/02/24 11:33:31;;;;;;;8.07;2.50;;;11.30;61.00;;;;;;5014127;28;20830;-81
2022/02/24 11:36:09;;;;;;;6.30;2.00;;;11.30;61.10;;;;;;5028219;28;20076;-80
2022/02/24 11:38:35;;;;;;;5.43;1.77;;;11.50;60.70;;;;;;5016403;28;20018;-80
2022/02/24 11:41:06;;;;;;;3.67;1.40;;;11.60;60.70;;;;;;5008977;28;20366;-80
2022/02/24 11:43:33;;;;;;;3.60;1.38;;;11.70;60.50;;;;;;5019233;28;20430;-79
2022/02/24 11:46:04;;;;;;;5.95;2.10;;;11.90;60.40;;;;;;5025739;28;20033;-81
2022/02/24 11:48:36;;;;;;;5.63;1.60;;;11.90;59.80;;;;;;5012764;28;20038;-83
2022/02/24 11:51:17;;;;;;;4.53;1.50;;;12.00;60.00;;;;;;5011976;28;20056;-80
2022/02/24 11:53:45;;;;;;;5.97;1.95;;;12.00;59.60;;;;;;5022641;28;20526;-80
2022/02/24 11:56:15;;;;;;;4.38;1.63;;;12.00;59.20;;;;;;5010170;28;20030;-81
2022/02/24 11:58:53;;;;;;;6.25;2.00;;;11.90;59.50;;;;;;5005811;28;20034;-80
2022/02/24 12:01:49;;;;;;;4.30;1.60;;;11.90;59.50;;;;;;5005718;28;20038;-79
2022/02/24 12:04:20;;;;;;;5.47;1.90;;;11.90;59.50;;;;;;5011957;28;20037;-83
2022/02/24 12:06:55;;;;;;;6.80;1.80;;;11.80;59.20;;;;;;5013277;28;20048;-81
2022/02/24 12:09:30;;;;;;;5.22;1.73;;;11.90;59.20;;;;;;5008955;28;20060;-81
2022/02/24 12:11:57;;;;;;;6.03;1.73;;;11.80;59.00;;;;;;5005524;28;20121;-82
2022/02/24 12:14:22;;;;;;;5.07;1.75;;;11.90;59.10;;;;;;5014750;28;20033;-82
2022/02/24 12:17:03;;;;;;;7.20;1.73;;;11.90;58.90;;;;;;5007744;28;20419;-80
2022/02/24 12:19:45;;;;;;;4.93;1.63;;;12.00;59.20;;;;;;5004421;28;20030;-81
2022/02/24 12:22:39;;;;;;;5.22;1.65;;;12.10;58.70;;;;;;5009287;28;20037;-82
2022/02/24 12:25:11;;;;;;;5.00;1.30;;;12.10;58.30;;;;;;5018286;28;20032;-80
2022/02/24 12:27:42;;;;;;;;;;;12.30;58.40;;;;;;5007046;28;20030;-80
2022/02/24 12:30:10;;;;;;;4.82;1.65;;;12.40;58.00;;;;;;5014234;28;19917;-80
2022/02/24 12:32:44;;;;;;;4.97;1.80;;;12.50;57.80;;;;;;5014196;28;20096;-80
2022/02/24 12:35:13;;;;;;;3.72;1.33;;;12.50;57.40;;;;;;5004699;28;20029;-80
2022/02/24 12:37:40;;;;;;;4.50;1.50;;;12.60;57.40;;;;;;5015029;28;20052;-80
2022/02/24 12:40:07;;;;;;;3.50;1.20;;;12.40;57.30;;;;;;5014371;28;20100;-81
2022/02/24 12:42:33;;;;;;;3.88;1.20;;;12.40;57.90;;;;;;5013987;28;20476;-81
2022/02/24 12:44:59;;;;;;;3.67;1.30;;;12.40;57.90;;;;;;5012250;28;20041;-81
2022/02/24 12:47:26;;;;;;;3.65;1.33;;;12.40;58.10;;;;;;5002889;28;20030;-79
2022/02/24 12:49:54;;;;;;;3.67;1.40;;;12.30;58.20;;;;;;5006038;28;20489;-79
2022/02/24 12:52:20;;;;;;;3.90;1.50;;;12.30;58.40;;;;;;5003787;28;20068;-80
2022/02/24 12:54:47;;;;;;;4.18;1.50;;;12.30;58.30;;;;;;5005096;28;20499;-79